createdAt,value
2019-01-22T00:00:36.942Z,38.43
2019-01-22T00:03:06.325Z,33.30
2019-01-22T00:05:35.658Z,33.20
2019-01-22T00:08:05.003Z,31.70
2019-01-22T00:10:34.350Z,31.23
2019-01-22T00:13:03.651Z,25.63
2019-01-22T00:15:32.958Z,36.47
2019-01-22T00:18:02.428Z,31.53
2019-01-22T00:20:31.783Z,30.63
2019-01-22T00:23:02.958Z,33.23
2019-01-22T00:25:32.237Z,28.97
2019-01-22T00:28:01.593Z,27.97
2019-01-22T00:30:31.057Z,25.43
2019-01-22T00:33:00.435Z,33.07
2019-01-22T00:35:29.855Z,27.50
2019-01-22T00:37:59.317Z,22.83
2019-01-22T00:40:29.191Z,27.67
2019-01-22T00:42:58.612Z,26.37
2019-01-22T00:45:28.031Z,27.90
2019-01-22T00:47:57.435Z,22.40
2019-01-22T00:50:26.900Z,24.73
2019-01-22T00:52:56.631Z,26.20
2019-01-22T00:55:26.047Z,28.33
2019-01-22T00:57:55.415Z,25.57
2019-01-22T01:00:28.004Z,26.20
2019-01-22T01:02:57.506Z,24.23
2019-01-22T01:05:27.326Z,26.73
2019-01-22T01:07:56.907Z,26.50
2019-01-22T01:10:26.453Z,28.97
2019-01-22T01:12:55.793Z,26.33
2019-01-22T01:15:25.148Z,24.97
2019-01-22T01:17:54.490Z,27.00
2019-01-22T01:20:24.167Z,28.70
2019-01-22T01:22:53.515Z,26.13
2019-01-22T01:25:24.111Z,30.03
2019-01-22T01:27:53.670Z,27.33
2019-01-22T01:30:25.259Z,26.40
2019-01-22T01:32:55.792Z,32.20
2019-01-22T01:35:25.168Z,26.53
2019-01-22T01:37:54.538Z,26.87
2019-01-22T01:40:23.944Z,26.23
2019-01-22T01:42:53.391Z,26.37
2019-01-22T01:45:22.761Z,28.57
2019-01-22T01:47:52.105Z,28.13
2019-01-22T01:50:21.475Z,26.70
2019-01-22T01:52:50.802Z,26.97
2019-01-22T01:55:20.166Z,26.20
2019-01-22T01:57:49.558Z,25.37
2019-01-22T02:00:23.588Z,18.97
2019-01-22T02:02:52.938Z,21.83
2019-01-22T02:05:22.275Z,20.80
2019-01-22T02:07:51.641Z,24.90
2019-01-22T02:10:23.206Z,18.27
2019-01-22T02:12:58.987Z,21.17
2019-01-22T02:15:35.875Z,20.27
2019-01-22T02:18:23.090Z,17.67
2019-01-22T02:21:11.014Z,19.33
2019-01-22T02:24:01.506Z,17.37
2019-01-22T02:27:10.948Z,21.33
2019-01-22T02:30:08.476Z,17.83
2019-01-22T02:33:26.858Z,18.27
2019-01-22T02:36:31.790Z,17.93
2019-01-22T02:39:30.165Z,16.27
2019-01-22T02:42:37.239Z,19.30
2019-01-22T02:45:56.716Z,15.83
2019-01-22T02:48:37.681Z,15.17
2019-01-22T02:52:03.917Z,15.07
2019-01-22T02:54:45.534Z,13.77
2019-01-22T02:57:41.259Z,14.83
2019-01-22T03:00:53.188Z,13.27
2019-01-22T03:04:02.794Z,13.50
2019-01-22T03:07:18.118Z,13.27
2019-01-22T03:10:33.344Z,14.87
2019-01-22T03:13:39.689Z,14.40
2019-01-22T03:16:44.785Z,12.43
2019-01-22T03:19:58.075Z,13.03
2019-01-22T03:23:09.564Z,13.53
2019-01-22T03:26:16.045Z,12.50
2019-01-22T03:29:12.785Z,12.70
2019-01-22T03:32:21.172Z,10.47
2019-01-22T03:35:16.715Z,11.83
2019-01-22T03:38:18.298Z,11.30
2019-01-22T03:41:22.697Z,12.33
2019-01-22T03:44:42.302Z,11.53
2019-01-22T03:47:33.505Z,12.43
2019-01-22T03:50:16.199Z,13.10
2019-01-22T03:53:00.259Z,11.77
2019-01-22T03:55:56.305Z,10.37
2019-01-22T03:58:25.945Z,10.13
2019-01-22T04:01:21.501Z,14.87
2019-01-22T04:03:50.863Z,13.63
2019-01-22T04:06:35.262Z,15.97
2019-01-22T04:09:34.369Z,9.77
2019-01-22T04:12:03.727Z,9.87
2019-01-22T04:14:33.072Z,10.77
2019-01-22T04:17:02.391Z,12.73
2019-01-22T04:19:31.731Z,14.00
2019-01-22T04:22:01.032Z,14.43
2019-01-22T04:25:10.605Z,11.20
2019-01-22T04:28:05.052Z,10.73
2019-01-22T04:31:02.387Z,12.40
2019-01-22T04:34:27.085Z,11.83
2019-01-22T04:37:49.645Z,14.57
2019-01-22T04:40:55.068Z,14.50
2019-01-22T04:44:02.764Z,10.77
2019-01-22T04:47:03.694Z,10.03
2019-01-22T04:50:20.135Z,10.97
2019-01-22T04:53:01.828Z,11.03
2019-01-22T04:56:13.020Z,13.13
2019-01-22T04:59:15.570Z,11.50
2019-01-22T05:02:20.598Z,15.57
2019-01-22T05:05:17.866Z,16.50
2019-01-22T05:08:36.696Z,15.07
2019-01-22T05:11:28.879Z,12.13
2019-01-22T05:14:29.206Z,13.10
2019-01-22T05:17:19.188Z,11.25
2019-01-22T05:19:59.343Z,13.37
2019-01-22T05:23:08.054Z,13.93
2019-01-22T05:26:14.617Z,12.60
2019-01-22T05:29:23.730Z,13.25
2019-01-22T05:32:33.747Z,9.80
2019-01-22T05:35:45.848Z,10.00
2019-01-22T05:38:49.364Z,11.67
2019-01-22T05:42:11.682Z,11.53
2019-01-22T05:45:24.270Z,16.50
2019-01-22T05:48:34.888Z,14.67
2019-01-22T05:51:50.910Z,11.23
2019-01-22T05:55:07.261Z,10.77
2019-01-22T05:58:09.634Z,11.27
2019-01-22T06:01:00.328Z,12.47
2019-01-22T06:04:31.724Z,16.07
2019-01-22T06:07:41.333Z,11.63
2019-01-22T06:10:49.279Z,10.75
2019-01-22T06:13:58.258Z,10.75
2019-01-22T06:17:09.028Z,13.60
2019-01-22T06:20:22.035Z,13.28
2019-01-22T06:23:23.144Z,12.03
2019-01-22T06:26:42.476Z,11.88
2019-01-22T06:29:55.584Z,7.97
2019-01-22T06:32:36.065Z,13.38
2019-01-22T06:35:42.879Z,9.70
2019-01-22T06:39:02.195Z,9.58
2019-01-22T06:42:25.058Z,11.28
2019-01-22T06:45:28.326Z,10.88
2019-01-22T06:48:14.796Z,11.12
2019-01-22T06:51:18.224Z,11.45
2019-01-22T06:53:53.470Z,9.98
2019-01-22T06:56:42.885Z,10.23
2019-01-22T06:59:54.526Z,10.13
2019-01-22T07:03:03.123Z,8.15
2019-01-22T07:05:48.019Z,12.23
2019-01-22T07:08:50.672Z,12.15
2019-01-22T07:12:03.877Z,9.45
2019-01-22T07:15:32.609Z,9.93
2019-01-22T07:18:32.356Z,9.83
2019-01-22T07:21:29.661Z,11.35
2019-01-22T07:24:34.924Z,10.40
2019-01-22T07:27:35.906Z,10.80
2019-01-22T07:30:47.808Z,10.30
2019-01-22T07:34:00.748Z,12.63
2019-01-22T07:37:06.881Z,11.90
2019-01-22T07:40:07.180Z,13.18
2019-01-22T07:43:23.529Z,11.28
2019-01-22T07:46:28.799Z,10.90
2019-01-22T07:49:32.403Z,8.90
2019-01-22T07:52:23.461Z,11.55
2019-01-22T07:55:29.647Z,11.33
2019-01-22T07:58:47.621Z,12.50
2019-01-22T08:01:58.297Z,9.77
2019-01-22T08:04:57.020Z,11.77
2019-01-22T08:08:13.461Z,10.28
2019-01-22T08:11:13.692Z,11.27
2019-01-22T08:13:57.534Z,10.53
2019-01-22T08:17:06.498Z,12.23
2019-01-22T08:19:55.681Z,10.40
2019-01-22T08:22:54.239Z,11.90
2019-01-22T08:25:56.066Z,16.23
2019-01-22T08:29:18.210Z,11.33
2019-01-22T08:32:03.669Z,12.00
2019-01-22T08:35:07.765Z,15.50
2019-01-22T08:38:29.153Z,10.40
2019-01-22T08:41:48.031Z,12.77
2019-01-22T08:44:46.822Z,13.97
2019-01-22T08:48:01.593Z,12.27
2019-01-22T08:50:41.638Z,14.60
2019-01-22T08:53:40.756Z,13.07
2019-01-22T08:56:34.164Z,10.87
2019-01-22T08:59:47.745Z,11.80
2019-01-22T09:02:56.925Z,15.13
2019-01-22T09:05:56.778Z,9.80
2019-01-22T09:09:01.902Z,10.73
2019-01-22T09:12:21.742Z,12.27
2019-01-22T09:15:00.640Z,12.73
2019-01-22T09:18:20.007Z,9.00
2019-01-22T09:21:04.604Z,9.13
2019-01-22T09:24:10.557Z,13.10
2019-01-22T09:26:59.316Z,12.37
2019-01-22T09:29:50.635Z,8.43
2019-01-22T09:33:09.922Z,12.73
2019-01-22T09:36:10.377Z,13.20
2019-01-22T09:38:39.986Z,15.53
2019-01-22T09:41:09.299Z,12.17
2019-01-22T09:43:38.641Z,14.57
2019-01-22T09:46:08.293Z,15.17
2019-01-22T09:48:37.690Z,13.43
2019-01-22T09:51:07.058Z,12.53
2019-01-22T09:53:36.483Z,13.73
2019-01-22T09:56:06.076Z,12.87
2019-01-22T09:58:35.441Z,14.20
2019-01-22T10:01:06.349Z,14.67
2019-01-22T10:03:35.707Z,18.27
2019-01-22T10:06:05.304Z,12.83
2019-01-22T10:08:34.630Z,16.80
2019-01-22T10:11:04.165Z,17.20
2019-01-22T10:13:33.495Z,15.37
2019-01-22T10:16:02.815Z,13.97
2019-01-22T10:18:32.168Z,16.47
2019-01-22T10:21:01.510Z,16.40
2019-01-22T10:23:30.880Z,14.37
2019-01-22T10:26:00.204Z,13.83
2019-01-22T10:28:29.562Z,15.43
2019-01-22T10:30:58.919Z,12.60
2019-01-22T10:33:28.312Z,11.00
2019-01-22T10:35:57.652Z,13.87
2019-01-22T10:38:27.037Z,14.50
2019-01-22T10:40:56.353Z,15.10
2019-01-22T10:43:25.703Z,15.07
2019-01-22T10:45:55.377Z,13.57
2019-01-22T10:48:24.736Z,12.30
2019-01-22T10:50:54.091Z,14.73
2019-01-22T10:53:23.421Z,12.33
2019-01-22T10:55:52.793Z,10.97
2019-01-22T10:58:22.138Z,17.70
2019-01-22T11:00:51.442Z,12.80
2019-01-22T11:03:20.782Z,15.33
2019-01-22T11:05:50.083Z,12.60
2019-01-22T11:08:19.432Z,13.80
2019-01-22T11:10:49.461Z,13.73
2019-01-22T11:13:18.875Z,14.63
2019-01-22T11:15:48.220Z,10.57
2019-01-22T11:18:17.589Z,14.80
2019-01-22T11:20:46.927Z,14.60
2019-01-22T11:23:16.310Z,14.60
2019-01-22T11:25:45.638Z,12.77
2019-01-22T11:28:14.963Z,11.97
2019-01-22T11:30:45.137Z,20.10
2019-01-22T11:33:14.589Z,17.43
2019-01-22T11:35:43.956Z,16.23
2019-01-22T11:38:13.290Z,16.83
2019-01-22T11:40:47.320Z,15.40
2019-01-22T11:43:16.708Z,17.53
2019-01-22T11:45:46.028Z,18.30
2019-01-22T11:48:15.376Z,16.67
2019-01-22T11:50:44.708Z,19.37
2019-01-22T11:53:14.419Z,19.67
2019-01-22T11:55:50.336Z,15.63
2019-01-22T11:58:14.902Z,15.97
2019-01-22T12:01:09.556Z,16.17
2019-01-22T12:03:38.925Z,17.07
2019-01-22T12:06:08.273Z,17.67
2019-01-22T12:08:37.661Z,18.57
2019-01-22T12:11:06.972Z,12.87
2019-01-22T12:13:36.383Z,15.17
2019-01-22T12:16:06.330Z,14.20
2019-01-22T12:18:35.652Z,14.60
2019-01-22T12:21:05.179Z,12.63
2019-01-22T12:23:34.533Z,17.53
2019-01-22T12:26:03.888Z,17.60
2019-01-22T12:28:33.355Z,11.73
2019-01-22T12:31:03.096Z,10.83
2019-01-22T12:33:32.442Z,12.77
2019-01-22T12:36:01.836Z,14.80
2019-01-22T12:38:31.173Z,16.13
2019-01-22T12:41:00.508Z,16.00
2019-01-22T12:43:29.843Z,15.17
2019-01-22T12:45:59.169Z,11.70
2019-01-22T12:48:28.487Z,14.47
2019-01-22T12:50:57.830Z,15.33
2019-01-22T12:53:27.381Z,14.43
2019-01-22T12:55:56.736Z,15.53
2019-01-22T12:58:26.182Z,16.23
2019-01-22T13:00:55.542Z,11.80
2019-01-22T13:03:24.861Z,16.37
2019-01-22T13:06:00.333Z,16.83
2019-01-22T13:08:29.653Z,18.23
2019-01-22T13:10:59.034Z,15.40
2019-01-22T13:13:28.332Z,12.67
2019-01-22T13:15:57.652Z,20.70
2019-01-22T13:18:27.099Z,17.90
2019-01-22T13:20:56.449Z,16.73
2019-01-22T13:23:25.792Z,18.23
2019-01-22T13:25:55.147Z,15.93
2019-01-22T13:28:24.500Z,17.57
2019-01-22T13:30:55.042Z,17.23
2019-01-22T13:33:24.392Z,15.73
2019-01-22T13:35:54.080Z,19.63
2019-01-22T13:38:23.425Z,18.30
2019-01-22T13:40:52.761Z,16.53
2019-01-22T13:43:24.502Z,22.17
2019-01-22T13:45:53.861Z,18.03
2019-01-22T13:48:24.758Z,18.13
2019-01-22T13:50:54.123Z,15.83
2019-01-22T13:53:23.574Z,15.87
2019-01-22T13:55:52.937Z,16.37
2019-01-22T13:58:22.759Z,19.03
2019-01-22T14:00:52.142Z,22.50
2019-01-22T14:03:21.545Z,18.37
2019-01-22T14:05:51.086Z,16.73
2019-01-22T14:08:20.437Z,21.07
2019-01-22T14:10:49.843Z,21.77
2019-01-22T14:13:19.218Z,19.77
2019-01-22T14:15:48.576Z,19.40
2019-01-22T14:18:19.413Z,12.85
2019-01-22T14:20:48.757Z,13.13
2019-01-22T14:23:18.114Z,22.32
2019-01-22T14:25:47.470Z,21.63
2019-01-22T14:28:16.954Z,19.23
2019-01-22T14:30:46.368Z,19.50
2019-01-22T14:33:15.742Z,19.62
2019-01-22T14:35:45.126Z,19.73
2019-01-22T14:38:15.776Z,17.37
2019-01-22T14:40:46.849Z,21.70
2019-01-22T14:43:16.287Z,21.53
2019-01-22T14:45:45.653Z,22.40
2019-01-22T14:48:15.008Z,18.27
2019-01-22T14:50:47.476Z,19.15
2019-01-22T14:53:16.810Z,19.17
2019-01-22T14:55:46.181Z,17.48
2019-01-22T14:58:15.542Z,21.95
2019-01-22T15:00:44.880Z,19.95
2019-01-22T15:03:14.313Z,21.40
2019-01-22T15:05:43.795Z,23.05
2019-01-22T15:08:13.165Z,19.48
2019-01-22T15:10:42.592Z,23.75
2019-01-22T15:13:11.926Z,20.43
2019-01-22T15:15:41.289Z,23.32
2019-01-22T15:18:10.650Z,23.10
2019-01-22T15:20:40.055Z,22.73
2019-01-22T15:23:09.427Z,23.12
2019-01-22T15:25:38.787Z,25.50
2019-01-22T15:28:08.108Z,27.25
2019-01-22T15:30:38.602Z,23.40
2019-01-22T15:33:08.487Z,22.62
2019-01-22T15:35:38.481Z,24.98
2019-01-22T15:38:07.850Z,26.60
2019-01-22T15:40:37.828Z,21.62
2019-01-22T15:43:07.291Z,20.70
2019-01-22T15:45:36.683Z,26.37
2019-01-22T15:48:06.490Z,15.98
2019-01-22T15:50:35.984Z,29.23
2019-01-22T15:53:05.451Z,24.90
2019-01-22T15:55:36.897Z,24.65
2019-01-22T15:58:07.259Z,21.50
2019-01-22T16:00:36.769Z,22.00
2019-01-22T16:03:07.110Z,24.05
2019-01-22T16:05:36.615Z,26.17
2019-01-22T16:08:06.632Z,25.80
2019-01-22T16:10:36.082Z,25.02
2019-01-22T16:13:05.730Z,21.75
2019-01-22T16:15:35.149Z,22.00
2019-01-22T16:18:04.812Z,24.80
2019-01-22T16:20:34.215Z,22.52
2019-01-22T16:23:03.676Z,22.25
2019-01-22T16:25:33.030Z,23.47
2019-01-22T16:28:02.448Z,29.42
2019-01-22T16:30:31.867Z,26.07
2019-01-22T16:33:01.255Z,26.97
2019-01-22T16:35:30.615Z,23.67
2019-01-22T16:38:00.028Z,27.58
2019-01-22T16:40:29.467Z,29.18
2019-01-22T16:43:00.853Z,28.23
2019-01-22T16:45:34.926Z,27.00
2019-01-22T16:48:04.813Z,22.05
2019-01-22T16:50:36.423Z,25.20
2019-01-22T16:53:08.663Z,27.80
2019-01-22T16:55:39.691Z,31.75
2019-01-22T16:58:09.278Z,26.87
2019-01-22T17:00:39.203Z,26.60
2019-01-22T17:03:08.999Z,32.28
2019-01-22T17:05:38.957Z,21.82
2019-01-22T17:08:08.278Z,26.97
2019-01-22T17:10:38.022Z,22.17
2019-01-22T17:13:07.394Z,25.08
2019-01-22T17:15:36.845Z,30.37
2019-01-22T17:18:07.588Z,27.22
2019-01-22T17:20:40.395Z,31.48
2019-01-22T17:23:16.703Z,22.60
2019-01-22T17:25:47.822Z,25.92
2019-01-22T17:28:17.453Z,23.75
2019-01-22T17:30:47.217Z,27.50
2019-01-22T17:33:28.907Z,26.23
2019-01-22T17:35:58.386Z,31.87
2019-01-22T17:38:27.706Z,26.73
2019-01-22T17:40:57.070Z,28.77
2019-01-22T17:43:26.447Z,30.70
2019-01-22T17:45:55.831Z,31.80
2019-01-22T17:48:25.298Z,28.07
2019-01-22T17:50:54.635Z,22.50
2019-01-22T17:53:24.519Z,25.83
2019-01-22T17:55:53.871Z,23.97
2019-01-22T17:58:23.223Z,30.80
2019-01-22T18:01:00.866Z,32.93
2019-01-22T18:03:30.778Z,32.10
2019-01-22T18:06:03.793Z,34.47
2019-01-22T18:08:38.393Z,27.98
2019-01-22T18:11:09.706Z,31.33
2019-01-22T18:13:41.774Z,23.20
2019-01-22T18:16:18.113Z,31.07
2019-01-22T18:18:51.118Z,31.37
2019-01-22T18:21:24.557Z,31.85
2019-01-22T18:23:55.736Z,29.37
2019-01-22T18:26:38.601Z,28.63
2019-01-22T18:29:08.273Z,29.20
2019-01-22T18:31:37.912Z,26.30
2019-01-22T18:34:09.858Z,30.03
2019-01-22T18:36:41.078Z,28.33
2019-01-22T18:39:12.994Z,27.03
2019-01-22T18:41:42.852Z,23.50
2019-01-22T18:44:12.199Z,27.83
2019-01-22T18:46:41.943Z,26.73
2019-01-22T18:49:11.421Z,29.07
2019-01-22T18:51:40.943Z,22.47
2019-01-22T18:54:13.905Z,26.27
2019-01-22T18:56:44.011Z,30.83
2019-01-22T18:59:13.337Z,23.03
2019-01-22T19:01:42.653Z,21.23
2019-01-22T19:04:11.967Z,20.43
2019-01-22T19:06:43.585Z,21.87
2019-01-22T19:09:13.003Z,20.83
2019-01-22T19:11:42.421Z,23.80
2019-01-22T19:14:11.738Z,20.97
2019-01-22T19:16:41.407Z,21.87
2019-01-22T19:19:11.772Z,22.90
2019-01-22T19:21:41.139Z,23.57
2019-01-22T19:24:10.567Z,20.50
2019-01-22T19:26:39.918Z,21.43
2019-01-22T19:29:09.217Z,17.90
2019-01-22T19:31:38.534Z,19.13
2019-01-22T19:34:07.892Z,18.83
2019-01-22T19:36:37.255Z,17.10
2019-01-22T19:39:07.615Z,19.13
2019-01-22T19:41:36.954Z,23.10
2019-01-22T19:44:06.287Z,25.43
2019-01-22T19:46:35.715Z,20.83
2019-01-22T19:49:05.186Z,23.47
2019-01-22T19:51:34.527Z,21.60
2019-01-22T19:54:03.841Z,21.97
2019-01-22T19:56:33.169Z,21.07
2019-01-22T19:59:02.559Z,22.03
2019-01-22T20:01:31.933Z,20.03
2019-01-22T20:04:01.408Z,19.37
2019-01-22T20:06:30.809Z,15.80
2019-01-22T20:09:00.129Z,15.13
2019-01-22T20:11:29.452Z,16.83
2019-01-22T20:13:58.911Z,15.03
2019-01-22T20:16:28.638Z,14.63
2019-01-22T20:18:57.987Z,16.73
2019-01-22T20:21:27.317Z,14.90
2019-01-22T20:23:56.961Z,17.17
2019-01-22T20:26:26.281Z,16.23
2019-01-22T20:28:55.650Z,14.37
2019-01-22T20:31:25.027Z,14.17
2019-01-22T20:33:54.393Z,15.70
2019-01-22T20:36:23.769Z,16.70
2019-01-22T20:38:53.526Z,13.50
2019-01-22T20:41:22.879Z,16.63
2019-01-22T20:43:52.252Z,17.47
2019-01-22T20:46:21.576Z,16.40
2019-01-22T20:48:50.922Z,16.73
2019-01-22T20:51:20.264Z,15.23
2019-01-22T20:53:49.620Z,16.53
2019-01-22T20:56:19.101Z,17.60
2019-01-22T20:58:48.664Z,18.20
2019-01-22T21:01:18.055Z,18.50
2019-01-22T21:03:47.464Z,17.67
2019-01-22T21:06:20.008Z,18.20
2019-01-22T21:08:49.424Z,15.67
2019-01-22T21:11:18.866Z,18.90
2019-01-22T21:13:48.255Z,16.60
2019-01-22T21:16:17.667Z,16.10
2019-01-22T21:18:47.070Z,18.63
2019-01-22T21:21:16.481Z,20.13
2019-01-22T21:23:45.929Z,16.63
2019-01-22T21:26:15.388Z,18.07
2019-01-22T21:28:44.778Z,21.87
2019-01-22T21:31:14.127Z,24.70
2019-01-22T21:33:43.628Z,22.53
2019-01-22T21:36:12.991Z,18.30
2019-01-22T21:38:42.402Z,17.07
2019-01-22T21:41:11.797Z,18.50
2019-01-22T21:43:41.241Z,15.53
2019-01-22T21:46:10.681Z,16.77
2019-01-22T21:48:40.104Z,16.37
2019-01-22T21:51:09.713Z,15.27
2019-01-22T21:53:39.111Z,14.60
2019-01-22T21:56:08.591Z,19.47
2019-01-22T21:58:37.980Z,15.87
2019-01-22T22:01:07.379Z,15.30
2019-01-22T22:03:36.898Z,14.53
2019-01-22T22:06:06.327Z,12.43
2019-01-22T22:08:35.844Z,14.87
2019-01-22T22:11:05.255Z,11.60
2019-01-22T22:13:34.611Z,12.60
2019-01-22T22:16:04.036Z,12.37
2019-01-22T22:18:33.466Z,14.00
2019-01-22T22:21:02.999Z,14.10
2019-01-22T22:23:32.659Z,15.00
2019-01-22T22:26:02.179Z,15.67
2019-01-22T22:28:31.735Z,13.23
2019-01-22T22:31:01.227Z,12.20
2019-01-22T22:33:30.801Z,14.37
2019-01-22T22:36:00.304Z,14.13
2019-01-22T22:38:29.867Z,14.43
2019-01-22T22:40:59.548Z,13.07
2019-01-22T22:43:29.149Z,13.07
2019-01-22T22:45:58.902Z,13.80
2019-01-22T22:48:28.457Z,18.03
2019-01-22T22:50:58.024Z,14.00
2019-01-22T22:53:27.933Z,16.47
2019-01-22T22:55:57.482Z,16.67
2019-01-22T22:58:27.117Z,16.73
2019-01-22T23:01:29.956Z,15.57
2019-01-22T23:03:59.672Z,15.53
2019-01-22T23:06:29.069Z,15.97
2019-01-22T23:08:58.735Z,16.33
2019-01-22T23:11:28.159Z,17.93
2019-01-22T23:13:57.548Z,20.40
2019-01-22T23:16:26.897Z,16.97
2019-01-22T23:18:56.243Z,15.77
2019-01-22T23:21:25.679Z,16.30
2019-01-22T23:23:55.007Z,14.43
2019-01-22T23:26:24.347Z,17.63
2019-01-22T23:28:53.678Z,14.17
2019-01-22T23:31:23.019Z,13.47
2019-01-22T23:33:52.356Z,12.80
2019-01-22T23:36:21.686Z,15.80
2019-01-22T23:38:51.222Z,13.93
2019-01-22T23:41:20.653Z,12.80
2019-01-22T23:43:50.230Z,11.40
2019-01-22T23:46:19.789Z,11.00
2019-01-22T23:48:49.251Z,10.70
2019-01-22T23:51:18.900Z,12.13
2019-01-22T23:53:48.327Z,10.90
2019-01-22T23:56:17.901Z,12.23
2019-01-22T23:58:47.497Z,11.80
